Terminal Aerodrome Forecast
Issued by NWS Pocatello, ID

Home | Current Version | Previous Version | Text Only | Print | Product List | Glossary On
Versions: 1 2 3 4 5 6 7 8 9 10 11 12 13 14
445
FTUS45 KPIH 180520
TAFIDA
TAF
KIDA 180520Z 1806/1906 34005KT P6SM FEW050 BKN200
     FM181300 VRB05KT P6SM FEW005 BKN070
     FM181900 21011KT P6SM BKN060 OVC120=

USA.gov is the U.S. government's official web portal to all federal, state and local government web resources and services.